sensor_id;sensor_type;location;lat;lon;timestamp;P1;durP1;ratioP1;P2;durP2;ratioP2
66145;SDS011;52948;60.040;30.320;2022-12-07T00:01:45;8.13;;;5.53;;
66145;SDS011;52948;60.040;30.320;2022-12-07T00:06:50;8.82;;;4.85;;
66145;SDS011;52948;60.040;30.320;2022-12-07T00:11:54;8.82;;;5.13;;
66145;SDS011;52948;60.040;30.320;2022-12-07T00:16:57;11.30;;;6.00;;
66145;SDS011;52948;60.040;30.320;2022-12-07T00:22:00;11.80;;;5.65;;
66145;SDS011;52948;60.040;30.320;2022-12-07T00:27:02;10.60;;;5.47;;
66145;SDS011;52948;60.040;30.320;2022-12-07T00:32:04;10.35;;;5.65;;
66145;SDS011;52948;60.040;30.320;2022-12-07T00:37:06;11.25;;;5.60;;
66145;SDS011;52948;60.040;30.320;2022-12-07T00:42:09;9.10;;;4.97;;
66145;SDS011;52948;60.040;30.320;2022-12-07T00:47:11;9.93;;;5.80;;
66145;SDS011;52948;60.040;30.320;2022-12-07T00:52:14;10.40;;;5.72;;
66145;SDS011;52948;60.040;30.320;2022-12-07T00:57:16;11.65;;;6.03;;
66145;SDS011;52948;60.040;30.320;2022-12-07T01:02:19;12.73;;;5.57;;
66145;SDS011;52948;60.040;30.320;2022-12-07T01:07:22;8.35;;;4.85;;
66145;SDS011;52948;60.040;30.320;2022-12-07T01:12:24;10.70;;;5.97;;
66145;SDS011;52948;60.040;30.320;2022-12-07T01:17:27;11.27;;;5.18;;
66145;SDS011;52948;60.040;30.320;2022-12-07T01:22:29;9.15;;;5.38;;
66145;SDS011;52948;60.040;30.320;2022-12-07T01:27:32;7.38;;;4.82;;
66145;SDS011;52948;60.040;30.320;2022-12-07T01:32:35;8.55;;;5.32;;
66145;SDS011;52948;60.040;30.320;2022-12-07T01:37:38;8.93;;;4.45;;
66145;SDS011;52948;60.040;30.320;2022-12-07T01:42:40;10.63;;;5.30;;
66145;SDS011;52948;60.040;30.320;2022-12-07T01:47:43;8.57;;;5.30;;
66145;SDS011;52948;60.040;30.320;2022-12-07T01:52:48;8.98;;;5.00;;
66145;SDS011;52948;60.040;30.320;2022-12-07T01:57:52;7.57;;;4.80;;
66145;SDS011;52948;60.040;30.320;2022-12-07T02:02:57;8.35;;;4.75;;
66145;SDS011;52948;60.040;30.320;2022-12-07T02:08:04;9.27;;;5.05;;
66145;SDS011;52948;60.040;30.320;2022-12-07T02:13:11;8.90;;;4.90;;
66145;SDS011;52948;60.040;30.320;2022-12-07T02:18:20;9.23;;;4.00;;
66145;SDS011;52948;60.040;30.320;2022-12-07T02:29:25;6.93;;;4.60;;
66145;SDS011;52948;60.040;30.320;2022-12-07T02:34:42;9.23;;;4.90;;
66145;SDS011;52948;60.040;30.320;2022-12-07T02:40:07;8.55;;;5.10;;
66145;SDS011;52948;60.040;30.320;2022-12-07T02:45:27;4.55;;;3.22;;
66145;SDS011;52948;60.040;30.320;2022-12-07T02:50:31;7.93;;;4.60;;
66145;SDS011;52948;60.040;30.320;2022-12-07T02:55:37;8.68;;;4.80;;
66145;SDS011;52948;60.040;30.320;2022-12-07T03:11:24;5.68;;;3.83;;
66145;SDS011;52948;60.040;30.320;2022-12-07T03:16:31;7.60;;;3.95;;
66145;SDS011;52948;60.040;30.320;2022-12-07T03:21:39;7.50;;;4.25;;
66145;SDS011;52948;60.040;30.320;2022-12-07T03:26:47;6.47;;;4.40;;
66145;SDS011;52948;60.040;30.320;2022-12-07T03:42:36;8.48;;;4.80;;
66145;SDS011;52948;60.040;30.320;2022-12-07T04:03:47;8.32;;;4.40;;
66145;SDS011;52948;60.040;30.320;2022-12-07T04:08:49;4.32;;;2.85;;
66145;SDS011;52948;60.040;30.320;2022-12-07T04:13:52;6.90;;;3.70;;
66145;SDS011;52948;60.040;30.320;2022-12-07T04:19:13;6.20;;;2.75;;
66145;SDS011;52948;60.040;30.320;2022-12-07T04:24:20;5.90;;;3.15;;
66145;SDS011;52948;60.040;30.320;2022-12-07T04:29:22;4.55;;;3.33;;
66145;SDS011;52948;60.040;30.320;2022-12-07T04:34:25;6.93;;;3.30;;
66145;SDS011;52948;60.040;30.320;2022-12-07T04:39:28;6.93;;;3.22;;
66145;SDS011;52948;60.040;30.320;2022-12-07T04:44:36;4.70;;;3.45;;
66145;SDS011;52948;60.040;30.320;2022-12-07T04:49:38;6.78;;;3.63;;
66145;SDS011;52948;60.040;30.320;2022-12-07T04:54:40;6.95;;;3.10;;
66145;SDS011;52948;60.040;30.320;2022-12-07T04:59:46;6.82;;;2.88;;
66145;SDS011;52948;60.040;30.320;2022-12-07T05:04:49;5.10;;;2.03;;
66145;SDS011;52948;60.040;30.320;2022-12-07T05:09:52;5.15;;;2.92;;
66145;SDS011;52948;60.040;30.320;2022-12-07T05:14:54;9.20;;;3.30;;
66145;SDS011;52948;60.040;30.320;2022-12-07T05:19:57;6.78;;;2.58;;
66145;SDS011;52948;60.040;30.320;2022-12-07T05:24:59;4.13;;;3.25;;
66145;SDS011;52948;60.040;30.320;2022-12-07T05:30:02;4.35;;;2.63;;
66145;SDS011;52948;60.040;30.320;2022-12-07T05:35:05;4.90;;;2.30;;
66145;SDS011;52948;60.040;30.320;2022-12-07T05:40:08;4.68;;;2.60;;
66145;SDS011;52948;60.040;30.320;2022-12-07T05:45:11;4.47;;;2.88;;
66145;SDS011;52948;60.040;30.320;2022-12-07T05:50:13;5.28;;;3.17;;
66145;SDS011;52948;60.040;30.320;2022-12-07T05:55:15;7.95;;;3.75;;
66145;SDS011;52948;60.040;30.320;2022-12-07T06:00:18;4.57;;;2.92;;
66145;SDS011;52948;60.040;30.320;2022-12-07T06:05:20;7.22;;;3.65;;
66145;SDS011;52948;60.040;30.320;2022-12-07T06:10:22;7.43;;;3.72;;
66145;SDS011;52948;60.040;30.320;2022-12-07T06:15:25;4.55;;;3.10;;
66145;SDS011;52948;60.040;30.320;2022-12-07T06:20:27;3.60;;;2.47;;
66145;SDS011;52948;60.040;30.320;2022-12-07T06:25:29;7.38;;;3.97;;
66145;SDS011;52948;60.040;30.320;2022-12-07T06:30:31;5.65;;;3.53;;
66145;SDS011;52948;60.040;30.320;2022-12-07T06:35:34;6.93;;;3.50;;
66145;SDS011;52948;60.040;30.320;2022-12-07T06:40:36;9.25;;;3.50;;
66145;SDS011;52948;60.040;30.320;2022-12-07T06:45:38;6.80;;;3.67;;
66145;SDS011;52948;60.040;30.320;2022-12-07T06:50:40;5.25;;;2.90;;
66145;SDS011;52948;60.040;30.320;2022-12-07T06:55:43;6.85;;;3.50;;
66145;SDS011;52948;60.040;30.320;2022-12-07T07:00:45;6.97;;;3.80;;
66145;SDS011;52948;60.040;30.320;2022-12-07T07:05:50;6.45;;;3.70;;
66145;SDS011;52948;60.040;30.320;2022-12-07T07:10:52;6.63;;;2.97;;
66145;SDS011;52948;60.040;30.320;2022-12-07T07:15:55;6.53;;;3.55;;
66145;SDS011;52948;60.040;30.320;2022-12-07T07:20:57;6.28;;;2.88;;
66145;SDS011;52948;60.040;30.320;2022-12-07T07:25:59;6.20;;;3.55;;
66145;SDS011;52948;60.040;30.320;2022-12-07T07:31:01;7.22;;;3.90;;
66145;SDS011;52948;60.040;30.320;2022-12-07T07:36:04;4.18;;;2.95;;
66145;SDS011;52948;60.040;30.320;2022-12-07T07:41:06;6.03;;;3.33;;
66145;SDS011;52948;60.040;30.320;2022-12-07T07:46:08;6.38;;;3.17;;
66145;SDS011;52948;60.040;30.320;2022-12-07T07:51:10;5.35;;;3.25;;
66145;SDS011;52948;60.040;30.320;2022-12-07T07:56:13;9.40;;;3.95;;
66145;SDS011;52948;60.040;30.320;2022-12-07T08:01:15;5.35;;;3.47;;
66145;SDS011;52948;60.040;30.320;2022-12-07T08:06:18;9.18;;;3.30;;
66145;SDS011;52948;60.040;30.320;2022-12-07T08:11:20;1.92;;;1.60;;
66145;SDS011;52948;60.040;30.320;2022-12-07T08:16:22;4.15;;;2.90;;
66145;SDS011;52948;60.040;30.320;2022-12-07T08:21:24;4.30;;;2.72;;
66145;SDS011;52948;60.040;30.320;2022-12-07T08:26:26;6.38;;;2.75;;
66145;SDS011;52948;60.040;30.320;2022-12-07T08:31:29;5.43;;;2.67;;
66145;SDS011;52948;60.040;30.320;2022-12-07T08:36:31;4.13;;;1.65;;
66145;SDS011;52948;60.040;30.320;2022-12-07T08:41:33;8.05;;;2.90;;
66145;SDS011;52948;60.040;30.320;2022-12-07T08:46:40;1.75;;;1.50;;
66145;SDS011;52948;60.040;30.320;2022-12-07T08:51:50;4.70;;;2.67;;
66145;SDS011;52948;60.040;30.320;2022-12-07T08:56:52;4.80;;;2.47;;
66145;SDS011;52948;60.040;30.320;2022-12-07T09:01:55;8.88;;;3.80;;
66145;SDS011;52948;60.040;30.320;2022-12-07T09:06:58;4.28;;;2.83;;
66145;SDS011;52948;60.040;30.320;2022-12-07T09:12:00;3.67;;;2.35;;
66145;SDS011;52948;60.040;30.320;2022-12-07T09:17:10;5.78;;;2.83;;
66145;SDS011;52948;60.040;30.320;2022-12-07T09:22:13;6.13;;;2.65;;
66145;SDS011;52948;60.040;30.320;2022-12-07T09:27:15;3.25;;;2.28;;
66145;SDS011;52948;60.040;30.320;2022-12-07T09:32:19;3.50;;;2.35;;
66145;SDS011;52948;60.040;30.320;2022-12-07T09:37:21;5.88;;;2.75;;
66145;SDS011;52948;60.040;30.320;2022-12-07T09:42:32;3.70;;;2.28;;
66145;SDS011;52948;60.040;30.320;2022-12-07T09:47:36;2.58;;;1.38;;
66145;SDS011;52948;60.040;30.320;2022-12-07T09:52:39;6.15;;;2.97;;
66145;SDS011;52948;60.040;30.320;2022-12-07T09:57:42;3.13;;;1.85;;
66145;SDS011;52948;60.040;30.320;2022-12-07T10:02:58;8.13;;;2.97;;
66145;SDS011;52948;60.040;30.320;2022-12-07T10:08:01;6.25;;;3.40;;
66145;SDS011;52948;60.040;30.320;2022-12-07T10:18:20;2.90;;;2.40;;
66145;SDS011;52948;60.040;30.320;2022-12-07T10:23:28;3.10;;;2.40;;
66145;SDS011;52948;60.040;30.320;2022-12-07T10:28:33;1.85;;;1.40;;
66145;SDS011;52948;60.040;30.320;2022-12-07T10:33:48;3.88;;;2.20;;
66145;SDS011;52948;60.040;30.320;2022-12-07T10:44:07;2.83;;;1.75;;
66145;SDS011;52948;60.040;30.320;2022-12-07T10:54:43;4.40;;;2.53;;
66145;SDS011;52948;60.040;30.320;2022-12-07T11:00:00;1.73;;;1.30;;
66145;SDS011;52948;60.040;30.320;2022-12-07T11:10:22;1.80;;;1.23;;
66145;SDS011;52948;60.040;30.320;2022-12-07T11:37:41;6.68;;;2.63;;
66145;SDS011;52948;60.040;30.320;2022-12-07T12:19:35;5.53;;;2.08;;
66145;SDS011;52948;60.040;30.320;2022-12-07T12:24:49;5.28;;;3.00;;
66145;SDS011;52948;60.040;30.320;2022-12-07T12:29:58;3.08;;;1.98;;
66145;SDS011;52948;60.040;30.320;2022-12-07T12:35:17;5.97;;;3.15;;
66145;SDS011;52948;60.040;30.320;2022-12-07T12:45:32;6.00;;;1.48;;
66145;SDS011;52948;60.040;30.320;2022-12-07T12:50:35;4.47;;;2.55;;
66145;SDS011;52948;60.040;30.320;2022-12-07T13:00:44;4.68;;;2.28;;
66145;SDS011;52948;60.040;30.320;2022-12-07T13:05:47;4.15;;;2.33;;
66145;SDS011;52948;60.040;30.320;2022-12-07T13:10:50;3.72;;;2.40;;
66145;SDS011;52948;60.040;30.320;2022-12-07T13:31:36;5.93;;;3.10;;
66145;SDS011;52948;60.040;30.320;2022-12-07T13:36:43;6.95;;;3.15;;
66145;SDS011;52948;60.040;30.320;2022-12-07T13:41:49;6.20;;;3.00;;
66145;SDS011;52948;60.040;30.320;2022-12-07T13:52:28;4.13;;;2.83;;
66145;SDS011;52948;60.040;30.320;2022-12-07T13:57:33;4.78;;;2.40;;
66145;SDS011;52948;60.040;30.320;2022-12-07T14:02:54;3.95;;;2.35;;
66145;SDS011;52948;60.040;30.320;2022-12-07T14:08:03;5.65;;;2.75;;
66145;SDS011;52948;60.040;30.320;2022-12-07T14:18:37;7.15;;;3.92;;
66145;SDS011;52948;60.040;30.320;2022-12-07T14:23:42;5.18;;;2.28;;
66145;SDS011;52948;60.040;30.320;2022-12-07T14:28:45;6.50;;;3.25;;
66145;SDS011;52948;60.040;30.320;2022-12-07T14:33:48;4.63;;;2.53;;
66145;SDS011;52948;60.040;30.320;2022-12-07T14:38:50;10.65;;;3.63;;
66145;SDS011;52948;60.040;30.320;2022-12-07T14:43:55;4.32;;;2.00;;
66145;SDS011;52948;60.040;30.320;2022-12-07T14:48:57;4.10;;;2.90;;
66145;SDS011;52948;60.040;30.320;2022-12-07T14:53:59;9.15;;;4.47;;
66145;SDS011;52948;60.040;30.320;2022-12-07T14:59:01;4.65;;;3.38;;
66145;SDS011;52948;60.040;30.320;2022-12-07T15:04:03;3.53;;;2.47;;
66145;SDS011;52948;60.040;30.320;2022-12-07T15:09:06;3.40;;;2.47;;
66145;SDS011;52948;60.040;30.320;2022-12-07T15:14:08;1.92;;;1.58;;
66145;SDS011;52948;60.040;30.320;2022-12-07T15:19:19;6.90;;;3.13;;
66145;SDS011;52948;60.040;30.320;2022-12-07T15:24:24;4.57;;;2.85;;
66145;SDS011;52948;60.040;30.320;2022-12-07T15:29:27;5.22;;;2.65;;
66145;SDS011;52948;60.040;30.320;2022-12-07T15:34:29;3.53;;;3.00;;
66145;SDS011;52948;60.040;30.320;2022-12-07T15:39:33;4.97;;;3.75;;
66145;SDS011;52948;60.040;30.320;2022-12-07T15:44:38;8.43;;;4.80;;
66145;SDS011;52948;60.040;30.320;2022-12-07T15:49:59;8.95;;;5.10;;
66145;SDS011;52948;60.040;30.320;2022-12-07T15:55:01;10.55;;;5.25;;
66145;SDS011;52948;60.040;30.320;2022-12-07T16:00:07;10.38;;;5.05;;
66145;SDS011;52948;60.040;30.320;2022-12-07T16:05:10;8.57;;;4.43;;
66145;SDS011;52948;60.040;30.320;2022-12-07T16:10:13;13.18;;;4.78;;
66145;SDS011;52948;60.040;30.320;2022-12-07T16:15:15;9.35;;;5.15;;
66145;SDS011;52948;60.040;30.320;2022-12-07T16:20:17;6.03;;;4.57;;
66145;SDS011;52948;60.040;30.320;2022-12-07T16:25:19;9.77;;;5.55;;
66145;SDS011;52948;60.040;30.320;2022-12-07T16:30:21;9.60;;;3.92;;
66145;SDS011;52948;60.040;30.320;2022-12-07T16:35:24;6.63;;;2.40;;
66145;SDS011;52948;60.040;30.320;2022-12-07T16:40:26;7.15;;;3.58;;
66145;SDS011;52948;60.040;30.320;2022-12-07T16:45:28;8.00;;;4.95;;
66145;SDS011;52948;60.040;30.320;2022-12-07T16:50:30;6.55;;;4.05;;
66145;SDS011;52948;60.040;30.320;2022-12-07T16:55:35;7.82;;;4.47;;
66145;SDS011;52948;60.040;30.320;2022-12-07T17:00:41;8.02;;;4.25;;
66145;SDS011;52948;60.040;30.320;2022-12-07T17:05:46;10.70;;;5.57;;
66145;SDS011;52948;60.040;30.320;2022-12-07T17:10:50;12.07;;;5.63;;
66145;SDS011;52948;60.040;30.320;2022-12-07T17:15:56;9.02;;;4.60;;
66145;SDS011;52948;60.040;30.320;2022-12-07T17:21:03;9.45;;;5.72;;
66145;SDS011;52948;60.040;30.320;2022-12-07T17:26:11;7.55;;;5.20;;
66145;SDS011;52948;60.040;30.320;2022-12-07T17:31:25;9.13;;;5.00;;
66145;SDS011;52948;60.040;30.320;2022-12-07T17:36:28;9.45;;;4.50;;
66145;SDS011;52948;60.040;30.320;2022-12-07T17:41:32;7.53;;;4.80;;
66145;SDS011;52948;60.040;30.320;2022-12-07T17:46:53;8.02;;;3.95;;
66145;SDS011;52948;60.040;30.320;2022-12-07T17:51:58;6.25;;;4.45;;
66145;SDS011;52948;60.040;30.320;2022-12-07T17:57:19;5.75;;;3.50;;
66145;SDS011;52948;60.040;30.320;2022-12-07T18:02:22;4.70;;;3.42;;
66145;SDS011;52948;60.040;30.320;2022-12-07T18:07:24;6.05;;;3.50;;
66145;SDS011;52948;60.040;30.320;2022-12-07T18:12:27;7.68;;;3.50;;
66145;SDS011;52948;60.040;30.320;2022-12-07T18:17:30;6.43;;;3.70;;
66145;SDS011;52948;60.040;30.320;2022-12-07T18:22:32;7.65;;;5.00;;
66145;SDS011;52948;60.040;30.320;2022-12-07T18:27:36;6.25;;;3.53;;
66145;SDS011;52948;60.040;30.320;2022-12-07T18:32:38;4.30;;;2.42;;
66145;SDS011;52948;60.040;30.320;2022-12-07T18:37:40;5.55;;;3.35;;
66145;SDS011;52948;60.040;30.320;2022-12-07T18:42:42;5.88;;;3.67;;
66145;SDS011;52948;60.040;30.320;2022-12-07T18:47:45;8.93;;;3.80;;
66145;SDS011;52948;60.040;30.320;2022-12-07T18:52:47;4.85;;;3.10;;
66145;SDS011;52948;60.040;30.320;2022-12-07T18:57:55;5.20;;;3.22;;
66145;SDS011;52948;60.040;30.320;2022-12-07T19:02:58;8.85;;;3.67;;
66145;SDS011;52948;60.040;30.320;2022-12-07T19:08:01;6.20;;;3.28;;
66145;SDS011;52948;60.040;30.320;2022-12-07T19:13:03;7.55;;;3.70;;
66145;SDS011;52948;60.040;30.320;2022-12-07T19:18:06;3.83;;;3.00;;
66145;SDS011;52948;60.040;30.320;2022-12-07T19:23:09;8.77;;;3.83;;
66145;SDS011;52948;60.040;30.320;2022-12-07T19:28:11;4.70;;;2.88;;
66145;SDS011;52948;60.040;30.320;2022-12-07T19:33:19;6.22;;;3.75;;
66145;SDS011;52948;60.040;30.320;2022-12-07T19:38:21;7.97;;;4.38;;
66145;SDS011;52948;60.040;30.320;2022-12-07T19:43:24;8.43;;;4.35;;
66145;SDS011;52948;60.040;30.320;2022-12-07T19:48:26;7.85;;;3.42;;
66145;SDS011;52948;60.040;30.320;2022-12-07T19:53:30;6.43;;;3.65;;
66145;SDS011;52948;60.040;30.320;2022-12-07T19:58:35;6.03;;;3.20;;
66145;SDS011;52948;60.040;30.320;2022-12-07T20:03:37;7.15;;;4.43;;
66145;SDS011;52948;60.040;30.320;2022-12-07T20:08:39;10.48;;;5.00;;
66145;SDS011;52948;60.040;30.320;2022-12-07T20:13:42;6.57;;;4.75;;
66145;SDS011;52948;60.040;30.320;2022-12-07T20:18:44;4.63;;;2.70;;
66145;SDS011;52948;60.040;30.320;2022-12-07T20:23:46;4.78;;;2.78;;
66145;SDS011;52948;60.040;30.320;2022-12-07T20:28:48;6.97;;;4.03;;
66145;SDS011;52948;60.040;30.320;2022-12-07T20:33:50;8.90;;;5.53;;
66145;SDS011;52948;60.040;30.320;2022-12-07T20:38:53;10.00;;;5.78;;
66145;SDS011;52948;60.040;30.320;2022-12-07T20:43:55;7.13;;;3.58;;
66145;SDS011;52948;60.040;30.320;2022-12-07T20:48:57;9.13;;;4.50;;
66145;SDS011;52948;60.040;30.320;2022-12-07T20:54:01;8.50;;;4.60;;
66145;SDS011;52948;60.040;30.320;2022-12-07T20:59:04;6.70;;;3.85;;
66145;SDS011;52948;60.040;30.320;2022-12-07T21:04:07;7.97;;;3.47;;
66145;SDS011;52948;60.040;30.320;2022-12-07T21:09:11;5.15;;;3.30;;
66145;SDS011;52948;60.040;30.320;2022-12-07T21:14:13;4.78;;;3.22;;
66145;SDS011;52948;60.040;30.320;2022-12-07T21:19:15;6.68;;;3.40;;
66145;SDS011;52948;60.040;30.320;2022-12-07T21:24:18;7.03;;;4.53;;
66145;SDS011;52948;60.040;30.320;2022-12-07T21:29:23;4.88;;;2.67;;
66145;SDS011;52948;60.040;30.320;2022-12-07T21:34:30;6.70;;;4.03;;
66145;SDS011;52948;60.040;30.320;2022-12-07T21:39:33;9.25;;;4.40;;
66145;SDS011;52948;60.040;30.320;2022-12-07T21:44:35;7.30;;;3.90;;
66145;SDS011;52948;60.040;30.320;2022-12-07T21:49:37;8.20;;;3.75;;
66145;SDS011;52948;60.040;30.320;2022-12-07T21:54:40;8.30;;;4.00;;
66145;SDS011;52948;60.040;30.320;2022-12-07T21:59:43;4.03;;;2.67;;
66145;SDS011;52948;60.040;30.320;2022-12-07T22:04:45;6.32;;;3.60;;
66145;SDS011;52948;60.040;30.320;2022-12-07T22:09:48;6.10;;;3.83;;
66145;SDS011;52948;60.040;30.320;2022-12-07T22:14:50;6.43;;;3.55;;
66145;SDS011;52948;60.040;30.320;2022-12-07T22:20:07;7.07;;;4.57;;
66145;SDS011;52948;60.040;30.320;2022-12-07T22:25:10;8.32;;;4.90;;
66145;SDS011;52948;60.040;30.320;2022-12-07T22:30:13;7.82;;;4.47;;
66145;SDS011;52948;60.040;30.320;2022-12-07T22:35:15;6.32;;;3.97;;
66145;SDS011;52948;60.040;30.320;2022-12-07T22:40:18;7.70;;;4.40;;
66145;SDS011;52948;60.040;30.320;2022-12-07T22:45:20;3.42;;;2.53;;
66145;SDS011;52948;60.040;30.320;2022-12-07T22:50:22;8.77;;;4.28;;
66145;SDS011;52948;60.040;30.320;2022-12-07T22:55:26;7.28;;;4.03;;
66145;SDS011;52948;60.040;30.320;2022-12-07T23:00:28;3.97;;;2.92;;
66145;SDS011;52948;60.040;30.320;2022-12-07T23:05:30;6.93;;;3.85;;
66145;SDS011;52948;60.040;30.320;2022-12-07T23:10:32;8.32;;;4.10;;
66145;SDS011;52948;60.040;30.320;2022-12-07T23:15:35;3.10;;;2.60;;
66145;SDS011;52948;60.040;30.320;2022-12-07T23:20:38;6.63;;;3.42;;
66145;SDS011;52948;60.040;30.320;2022-12-07T23:25:40;7.60;;;3.65;;
66145;SDS011;52948;60.040;30.320;2022-12-07T23:30:42;5.47;;;2.53;;
66145;SDS011;52948;60.040;30.320;2022-12-07T23:35:44;6.65;;;3.10;;
66145;SDS011;52948;60.040;30.320;2022-12-07T23:40:46;9.20;;;5.32;;
66145;SDS011;52948;60.040;30.320;2022-12-07T23:45:49;6.95;;;2.97;;
66145;SDS011;52948;60.040;30.320;2022-12-07T23:50:54;8.55;;;4.65;;
66145;SDS011;52948;60.040;30.320;2022-12-07T23:55:57;5.07;;;3.35;;
